sensor_id;sensor_type;location;lat;lon;timestamp;temperature;humidity
13251;DHT22;6692;50.710;7.180;2023-02-01T00:01:07;7.10;99.90
13251;DHT22;6692;50.710;7.180;2023-02-01T00:03:06;7.10;99.90
13251;DHT22;6692;50.710;7.180;2023-02-01T00:05:08;7.10;99.90
13251;DHT22;6692;50.710;7.180;2023-02-01T00:07:09;7.10;99.90
13251;DHT22;6692;50.710;7.180;2023-02-01T00:09:09;7.10;99.90
13251;DHT22;6692;50.710;7.180;2023-02-01T00:11:11;7.10;99.90
13251;DHT22;6692;50.710;7.180;2023-02-01T00:13:11;7.10;99.90
13251;DHT22;6692;50.710;7.180;2023-02-01T00:15:11;7.10;99.90
13251;DHT22;6692;50.710;7.180;2023-02-01T00:17:12;7.10;99.90
13251;DHT22;6692;50.710;7.180;2023-02-01T00:19:14;7.00;99.90
13251;DHT22;6692;50.710;7.180;2023-02-01T00:21:14;6.90;99.90
13251;DHT22;6692;50.710;7.180;2023-02-01T00:23:14;6.90;99.90
13251;DHT22;6692;50.710;7.180;2023-02-01T00:25:15;6.80;99.90
13251;DHT22;6692;50.710;7.180;2023-02-01T00:27:16;6.70;99.90
13251;DHT22;6692;50.710;7.180;2023-02-01T00:29:18;6.60;99.90
13251;DHT22;6692;50.710;7.180;2023-02-01T00:31:18;6.70;99.90
13251;DHT22;6692;50.710;7.180;2023-02-01T00:33:19;6.70;99.90
13251;DHT22;6692;50.710;7.180;2023-02-01T00:35:19;6.80;99.90
13251;DHT22;6692;50.710;7.180;2023-02-01T00:37:20;6.80;99.90
13251;DHT22;6692;50.710;7.180;2023-02-01T00:39:21;6.90;99.90
13251;DHT22;6692;50.710;7.180;2023-02-01T00:41:22;6.90;99.90
13251;DHT22;6692;50.710;7.180;2023-02-01T00:43:22;7.00;99.90
13251;DHT22;6692;50.710;7.180;2023-02-01T00:45:23;7.00;99.90
13251;DHT22;6692;50.710;7.180;2023-02-01T00:47:23;7.00;99.90
13251;DHT22;6692;50.710;7.180;2023-02-01T00:49:25;7.00;99.90
13251;DHT22;6692;50.710;7.180;2023-02-01T00:51:28;7.00;99.90
13251;DHT22;6692;50.710;7.180;2023-02-01T00:53:26;7.00;99.90
13251;DHT22;6692;50.710;7.180;2023-02-01T00:55:27;7.10;99.90
13251;DHT22;6692;50.710;7.180;2023-02-01T00:57:27;7.10;99.90
13251;DHT22;6692;50.710;7.180;2023-02-01T00:59:28;7.10;99.90
13251;DHT22;6692;50.710;7.180;2023-02-01T01:01:29;7.10;99.90
13251;DHT22;6692;50.710;7.180;2023-02-01T01:03:31;7.20;99.90
13251;DHT22;6692;50.710;7.180;2023-02-01T01:05:31;7.20;99.90
13251;DHT22;6692;50.710;7.180;2023-02-01T01:07:32;7.20;99.90
13251;DHT22;6692;50.710;7.180;2023-02-01T01:09:33;7.20;99.90
13251;DHT22;6692;50.710;7.180;2023-02-01T01:11:35;7.20;99.90
13251;DHT22;6692;50.710;7.180;2023-02-01T01:13:34;7.20;99.90
13251;DHT22;6692;50.710;7.180;2023-02-01T01:15:35;7.20;99.90
13251;DHT22;6692;50.710;7.180;2023-02-01T01:17:35;7.20;99.90
13251;DHT22;6692;50.710;7.180;2023-02-01T01:19:36;7.20;99.90
13251;DHT22;6692;50.710;7.180;2023-02-01T01:21:37;7.20;99.90
13251;DHT22;6692;50.710;7.180;2023-02-01T01:23:37;7.20;99.90
13251;DHT22;6692;50.710;7.180;2023-02-01T01:25:38;7.20;99.90
13251;DHT22;6692;50.710;7.180;2023-02-01T01:27:39;7.20;99.90
13251;DHT22;6692;50.710;7.180;2023-02-01T01:29:39;7.20;99.90
13251;DHT22;6692;50.710;7.180;2023-02-01T01:31:40;7.20;99.90
13251;DHT22;6692;50.710;7.180;2023-02-01T01:33:41;7.20;99.90
13251;DHT22;6692;50.710;7.180;2023-02-01T01:35:42;7.20;99.90
13251;DHT22;6692;50.710;7.180;2023-02-01T01:37:42;7.20;99.90
13251;DHT22;6692;50.710;7.180;2023-02-01T01:39:43;7.20;99.90
13251;DHT22;6692;50.710;7.180;2023-02-01T01:41:43;7.20;99.90
13251;DHT22;6692;50.710;7.180;2023-02-01T01:43:51;7.20;99.90
13251;DHT22;6692;50.710;7.180;2023-02-01T01:45:50;7.20;99.90
13251;DHT22;6692;50.710;7.180;2023-02-01T01:47:54;7.20;99.90
13251;DHT22;6692;50.710;7.180;2023-02-01T01:49:54;7.10;99.90
13251;DHT22;6692;50.710;7.180;2023-02-01T01:51:56;7.10;99.90
13251;DHT22;6692;50.710;7.180;2023-02-01T01:53:58;7.10;99.90
13251;DHT22;6692;50.710;7.180;2023-02-01T01:55:56;7.20;99.90
13251;DHT22;6692;50.710;7.180;2023-02-01T01:57:58;7.10;99.90
13251;DHT22;6692;50.710;7.180;2023-02-01T02:00:11;7.20;99.90
13251;DHT22;6692;50.710;7.180;2023-02-01T02:07:21;7.10;99.90
13251;DHT22;6692;50.710;7.180;2023-02-01T02:09:21;7.10;99.90
13251;DHT22;6692;50.710;7.180;2023-02-01T02:11:21;7.10;99.90
13251;DHT22;6692;50.710;7.180;2023-02-01T02:13:22;7.20;99.90
13251;DHT22;6692;50.710;7.180;2023-02-01T02:15:23;7.10;99.90
13251;DHT22;6692;50.710;7.180;2023-02-01T02:17:44;7.10;99.90
13251;DHT22;6692;50.710;7.180;2023-02-01T02:19:53;7.20;99.90
13251;DHT22;6692;50.710;7.180;2023-02-01T02:33:45;7.20;99.90
13251;DHT22;6692;50.710;7.180;2023-02-01T02:35:50;7.20;99.90
13251;DHT22;6692;50.710;7.180;2023-02-01T02:37:51;7.20;99.90
13251;DHT22;6692;50.710;7.180;2023-02-01T02:39:58;7.20;99.90
13251;DHT22;6692;50.710;7.180;2023-02-01T02:42:14;7.20;99.90
13251;DHT22;6692;50.710;7.180;2023-02-01T02:44:24;7.20;99.90
13251;DHT22;6692;50.710;7.180;2023-02-01T02:46:39;7.20;99.90
13251;DHT22;6692;50.710;7.180;2023-02-01T02:48:49;7.20;99.90
13251;DHT22;6692;50.710;7.180;2023-02-01T02:50:54;7.20;99.90
13251;DHT22;6692;50.710;7.180;2023-02-01T02:53:04;7.20;99.90
13251;DHT22;6692;50.710;7.180;2023-02-01T02:55:09;7.20;99.90
13251;DHT22;6692;50.710;7.180;2023-02-01T02:57:10;7.20;99.90
13251;DHT22;6692;50.710;7.180;2023-02-01T02:59:17;7.30;99.90
13251;DHT22;6692;50.710;7.180;2023-02-01T03:03:45;7.30;99.90
13251;DHT22;6692;50.710;7.180;2023-02-01T03:05:52;7.30;99.90
13251;DHT22;6692;50.710;7.180;2023-02-01T03:08:03;7.30;99.90
13251;DHT22;6692;50.710;7.180;2023-02-01T03:10:03;7.30;99.90
13251;DHT22;6692;50.710;7.180;2023-02-01T03:12:04;7.30;99.90
13251;DHT22;6692;50.710;7.180;2023-02-01T03:14:10;7.30;99.90
13251;DHT22;6692;50.710;7.180;2023-02-01T03:16:32;7.30;99.90
13251;DHT22;6692;50.710;7.180;2023-02-01T03:18:41;7.30;99.90
13251;DHT22;6692;50.710;7.180;2023-02-01T03:20:38;7.30;99.90
13251;DHT22;6692;50.710;7.180;2023-02-01T03:22:39;7.30;99.90
13251;DHT22;6692;50.710;7.180;2023-02-01T03:24:48;7.30;99.90
13251;DHT22;6692;50.710;7.180;2023-02-01T03:26:50;7.30;99.90
13251;DHT22;6692;50.710;7.180;2023-02-01T03:28:52;7.30;99.90
13251;DHT22;6692;50.710;7.180;2023-02-01T03:30:51;7.30;99.90
13251;DHT22;6692;50.710;7.180;2023-02-01T03:32:54;7.40;99.90
13251;DHT22;6692;50.710;7.180;2023-02-01T03:34:58;7.40;99.90
13251;DHT22;6692;50.710;7.180;2023-02-01T03:37:01;7.30;99.90
13251;DHT22;6692;50.710;7.180;2023-02-01T03:39:05;7.40;99.90
13251;DHT22;6692;50.710;7.180;2023-02-01T03:41:11;7.30;99.90
13251;DHT22;6692;50.710;7.180;2023-02-01T03:43:10;7.30;99.90
13251;DHT22;6692;50.710;7.180;2023-02-01T03:45:11;7.30;99.90
13251;DHT22;6692;50.710;7.180;2023-02-01T03:47:16;7.30;99.90
13251;DHT22;6692;50.710;7.180;2023-02-01T03:49:25;7.30;99.90
13251;DHT22;6692;50.710;7.180;2023-02-01T03:51:24;7.40;99.90
13251;DHT22;6692;50.710;7.180;2023-02-01T03:53:25;7.30;99.90
13251;DHT22;6692;50.710;7.180;2023-02-01T03:55:26;7.40;99.90
13251;DHT22;6692;50.710;7.180;2023-02-01T03:57:27;7.40;99.90
13251;DHT22;6692;50.710;7.180;2023-02-01T03:59:27;7.40;99.90
13251;DHT22;6692;50.710;7.180;2023-02-01T04:01:29;7.30;99.90
13251;DHT22;6692;50.710;7.180;2023-02-01T04:03:29;7.40;99.90
13251;DHT22;6692;50.710;7.180;2023-02-01T04:05:30;7.40;99.90
13251;DHT22;6692;50.710;7.180;2023-02-01T04:07:31;7.40;99.90
13251;DHT22;6692;50.710;7.180;2023-02-01T04:09:32;7.30;99.90
13251;DHT22;6692;50.710;7.180;2023-02-01T04:11:34;7.30;99.90
13251;DHT22;6692;50.710;7.180;2023-02-01T04:13:35;7.30;99.90
13251;DHT22;6692;50.710;7.180;2023-02-01T04:15:36;7.30;99.90
13251;DHT22;6692;50.710;7.180;2023-02-01T04:17:37;7.30;99.90
13251;DHT22;6692;50.710;7.180;2023-02-01T04:19:38;7.30;99.90
13251;DHT22;6692;50.710;7.180;2023-02-01T04:21:39;7.20;99.90
13251;DHT22;6692;50.710;7.180;2023-02-01T04:23:39;7.20;99.90
13251;DHT22;6692;50.710;7.180;2023-02-01T04:25:40;7.10;99.90
13251;DHT22;6692;50.710;7.180;2023-02-01T04:27:42;7.10;99.90
13251;DHT22;6692;50.710;7.180;2023-02-01T04:29:43;7.10;99.90
13251;DHT22;6692;50.710;7.180;2023-02-01T04:31:44;7.10;99.90
13251;DHT22;6692;50.710;7.180;2023-02-01T04:33:45;7.00;99.90
13251;DHT22;6692;50.710;7.180;2023-02-01T04:35:47;7.00;99.90
13251;DHT22;6692;50.710;7.180;2023-02-01T04:37:48;6.90;99.90
13251;DHT22;6692;50.710;7.180;2023-02-01T04:39:49;6.90;99.90
13251;DHT22;6692;50.710;7.180;2023-02-01T04:41:49;6.90;99.90
13251;DHT22;6692;50.710;7.180;2023-02-01T04:43:50;6.90;99.90
13251;DHT22;6692;50.710;7.180;2023-02-01T04:45:51;6.80;99.90
13251;DHT22;6692;50.710;7.180;2023-02-01T04:47:52;6.80;99.90
13251;DHT22;6692;50.710;7.180;2023-02-01T04:49:54;6.80;99.90
13251;DHT22;6692;50.710;7.180;2023-02-01T04:51:55;6.80;99.90
13251;DHT22;6692;50.710;7.180;2023-02-01T04:53:56;6.80;99.90
13251;DHT22;6692;50.710;7.180;2023-02-01T04:55:57;6.70;99.90
13251;DHT22;6692;50.710;7.180;2023-02-01T04:57:59;6.70;99.90
13251;DHT22;6692;50.710;7.180;2023-02-01T05:00:00;6.70;99.90
13251;DHT22;6692;50.710;7.180;2023-02-01T05:02:01;6.80;99.90
13251;DHT22;6692;50.710;7.180;2023-02-01T05:04:02;6.80;99.90
13251;DHT22;6692;50.710;7.180;2023-02-01T05:06:03;6.80;99.90
13251;DHT22;6692;50.710;7.180;2023-02-01T05:08:05;6.80;99.90
13251;DHT22;6692;50.710;7.180;2023-02-01T05:10:07;6.80;99.90
13251;DHT22;6692;50.710;7.180;2023-02-01T05:12:09;6.80;99.90
13251;DHT22;6692;50.710;7.180;2023-02-01T05:14:15;6.70;99.90
13251;DHT22;6692;50.710;7.180;2023-02-01T05:16:16;6.70;99.90
13251;DHT22;6692;50.710;7.180;2023-02-01T05:18:17;6.60;99.90
13251;DHT22;6692;50.710;7.180;2023-02-01T05:20:18;6.60;99.90
13251;DHT22;6692;50.710;7.180;2023-02-01T05:22:18;6.60;99.90
13251;DHT22;6692;50.710;7.180;2023-02-01T05:24:19;6.50;99.90
13251;DHT22;6692;50.710;7.180;2023-02-01T05:26:21;6.50;99.90
13251;DHT22;6692;50.710;7.180;2023-02-01T05:28:22;6.50;99.90
13251;DHT22;6692;50.710;7.180;2023-02-01T05:30:22;6.50;99.90
13251;DHT22;6692;50.710;7.180;2023-02-01T05:32:23;6.50;99.90
13251;DHT22;6692;50.710;7.180;2023-02-01T05:34:24;6.50;99.90
13251;DHT22;6692;50.710;7.180;2023-02-01T05:36:25;6.50;99.90
13251;DHT22;6692;50.710;7.180;2023-02-01T05:38:26;6.50;99.90
13251;DHT22;6692;50.710;7.180;2023-02-01T05:40:26;6.50;99.90
13251;DHT22;6692;50.710;7.180;2023-02-01T05:42:27;6.40;99.90
13251;DHT22;6692;50.710;7.180;2023-02-01T05:44:28;6.40;99.90
13251;DHT22;6692;50.710;7.180;2023-02-01T05:46:29;6.40;99.90
13251;DHT22;6692;50.710;7.180;2023-02-01T05:48:30;6.40;99.90
13251;DHT22;6692;50.710;7.180;2023-02-01T05:50:31;6.30;99.90
13251;DHT22;6692;50.710;7.180;2023-02-01T05:52:32;6.30;99.90
13251;DHT22;6692;50.710;7.180;2023-02-01T05:54:34;6.30;99.90
13251;DHT22;6692;50.710;7.180;2023-02-01T05:56:35;6.30;99.90
13251;DHT22;6692;50.710;7.180;2023-02-01T05:58:36;6.30;99.90
13251;DHT22;6692;50.710;7.180;2023-02-01T06:00:36;6.30;99.90
13251;DHT22;6692;50.710;7.180;2023-02-01T06:02:37;6.30;99.90
13251;DHT22;6692;50.710;7.180;2023-02-01T06:04:38;6.30;99.90
13251;DHT22;6692;50.710;7.180;2023-02-01T06:06:39;6.30;99.90
13251;DHT22;6692;50.710;7.180;2023-02-01T06:08:41;6.20;99.90
13251;DHT22;6692;50.710;7.180;2023-02-01T06:10:42;6.20;99.90
13251;DHT22;6692;50.710;7.180;2023-02-01T06:12:43;6.20;99.90
13251;DHT22;6692;50.710;7.180;2023-02-01T06:14:44;6.20;99.90
13251;DHT22;6692;50.710;7.180;2023-02-01T06:16:46;6.20;99.90
13251;DHT22;6692;50.710;7.180;2023-02-01T06:18:46;6.20;99.90
13251;DHT22;6692;50.710;7.180;2023-02-01T06:20:55;6.20;99.90
13251;DHT22;6692;50.710;7.180;2023-02-01T06:22:56;6.20;99.90
13251;DHT22;6692;50.710;7.180;2023-02-01T06:24:57;6.30;99.90
13251;DHT22;6692;50.710;7.180;2023-02-01T06:26:58;6.40;99.90
13251;DHT22;6692;50.710;7.180;2023-02-01T06:29:00;6.40;99.90
13251;DHT22;6692;50.710;7.180;2023-02-01T06:31:04;6.50;99.90
13251;DHT22;6692;50.710;7.180;2023-02-01T06:33:13;6.50;99.90
13251;DHT22;6692;50.710;7.180;2023-02-01T06:35:15;6.50;99.90
13251;DHT22;6692;50.710;7.180;2023-02-01T06:37:18;6.50;99.90
13251;DHT22;6692;50.710;7.180;2023-02-01T06:39:19;6.50;99.90
13251;DHT22;6692;50.710;7.180;2023-02-01T06:41:21;6.50;99.90
13251;DHT22;6692;50.710;7.180;2023-02-01T06:43:25;6.60;99.90
13251;DHT22;6692;50.710;7.180;2023-02-01T06:45:26;6.60;99.90
13251;DHT22;6692;50.710;7.180;2023-02-01T06:47:34;6.60;99.90
13251;DHT22;6692;50.710;7.180;2023-02-01T06:49:37;6.60;99.90
13251;DHT22;6692;50.710;7.180;2023-02-01T06:51:38;6.60;99.90
13251;DHT22;6692;50.710;7.180;2023-02-01T06:53:40;6.60;99.90
13251;DHT22;6692;50.710;7.180;2023-02-01T06:55:41;6.60;99.90
13251;DHT22;6692;50.710;7.180;2023-02-01T06:57:45;6.70;99.90
13251;DHT22;6692;50.710;7.180;2023-02-01T06:59:54;6.70;99.90
13251;DHT22;6692;50.710;7.180;2023-02-01T07:01:56;6.70;99.90
13251;DHT22;6692;50.710;7.180;2023-02-01T07:04:00;6.70;99.90
13251;DHT22;6692;50.710;7.180;2023-02-01T07:06:05;6.80;99.90
13251;DHT22;6692;50.710;7.180;2023-02-01T07:08:11;6.80;99.90
13251;DHT22;6692;50.710;7.180;2023-02-01T07:10:18;6.80;99.90
13251;DHT22;6692;50.710;7.180;2023-02-01T07:12:26;6.80;99.90
13251;DHT22;6692;50.710;7.180;2023-02-01T07:15:02;6.80;99.90
13251;DHT22;6692;50.710;7.180;2023-02-01T07:17:04;6.90;99.90
13251;DHT22;6692;50.710;7.180;2023-02-01T07:19:09;6.90;99.90
13251;DHT22;6692;50.710;7.180;2023-02-01T07:24:11;6.80;99.90
13251;DHT22;6692;50.710;7.180;2023-02-01T07:31:18;6.80;99.90
13251;DHT22;6692;50.710;7.180;2023-02-01T07:36:10;6.90;99.90
13251;DHT22;6692;50.710;7.180;2023-02-01T07:38:20;6.90;99.90
13251;DHT22;6692;50.710;7.180;2023-02-01T07:40:27;6.90;99.90
13251;DHT22;6692;50.710;7.180;2023-02-01T07:42:33;6.90;99.90
13251;DHT22;6692;50.710;7.180;2023-02-01T07:44:34;7.00;99.90
13251;DHT22;6692;50.710;7.180;2023-02-01T07:46:34;7.00;99.90
13251;DHT22;6692;50.710;7.180;2023-02-01T07:48:40;7.10;99.90
13251;DHT22;6692;50.710;7.180;2023-02-01T07:51:01;7.10;99.90
13251;DHT22;6692;50.710;7.180;2023-02-01T07:53:01;7.10;99.90
13251;DHT22;6692;50.710;7.180;2023-02-01T07:55:02;7.10;99.90
13251;DHT22;6692;50.710;7.180;2023-02-01T07:57:03;7.10;99.90
13251;DHT22;6692;50.710;7.180;2023-02-01T07:59:03;7.20;99.90
13251;DHT22;6692;50.710;7.180;2023-02-01T08:01:04;7.20;99.90
13251;DHT22;6692;50.710;7.180;2023-02-01T08:03:11;7.20;99.90
13251;DHT22;6692;50.710;7.180;2023-02-01T08:05:12;7.20;99.90
13251;DHT22;6692;50.710;7.180;2023-02-01T08:07:13;7.20;99.90
13251;DHT22;6692;50.710;7.180;2023-02-01T08:09:14;7.20;99.90
13251;DHT22;6692;50.710;7.180;2023-02-01T08:11:16;7.30;99.90
13251;DHT22;6692;50.710;7.180;2023-02-01T08:13:16;7.30;99.90
13251;DHT22;6692;50.710;7.180;2023-02-01T08:15:18;7.30;99.90
13251;DHT22;6692;50.710;7.180;2023-02-01T08:17:18;7.30;99.90
13251;DHT22;6692;50.710;7.180;2023-02-01T08:19:19;7.40;99.90
13251;DHT22;6692;50.710;7.180;2023-02-01T08:21:21;7.40;99.90
13251;DHT22;6692;50.710;7.180;2023-02-01T08:23:21;7.40;99.90
13251;DHT22;6692;50.710;7.180;2023-02-01T08:25:23;7.40;99.90
13251;DHT22;6692;50.710;7.180;2023-02-01T08:27:23;7.40;99.90
13251;DHT22;6692;50.710;7.180;2023-02-01T08:29:24;7.50;99.90
13251;DHT22;6692;50.710;7.180;2023-02-01T08:31:26;7.50;99.90
13251;DHT22;6692;50.710;7.180;2023-02-01T08:33:26;7.50;99.90
13251;DHT22;6692;50.710;7.180;2023-02-01T08:35:27;7.50;99.90
13251;DHT22;6692;50.710;7.180;2023-02-01T08:37:28;7.50;99.90
13251;DHT22;6692;50.710;7.180;2023-02-01T08:39:29;7.50;99.90
13251;DHT22;6692;50.710;7.180;2023-02-01T08:41:30;7.50;99.90
13251;DHT22;6692;50.710;7.180;2023-02-01T08:43:30;7.50;99.90
13251;DHT22;6692;50.710;7.180;2023-02-01T08:45:32;7.60;99.90
13251;DHT22;6692;50.710;7.180;2023-02-01T08:47:33;7.50;99.90
13251;DHT22;6692;50.710;7.180;2023-02-01T08:49:34;7.70;99.90
13251;DHT22;6692;50.710;7.180;2023-02-01T08:51:34;7.70;99.90
13251;DHT22;6692;50.710;7.180;2023-02-01T08:53:36;7.80;99.90
13251;DHT22;6692;50.710;7.180;2023-02-01T08:55:36;7.90;99.90
13251;DHT22;6692;50.710;7.180;2023-02-01T08:57:37;7.90;99.90
13251;DHT22;6692;50.710;7.180;2023-02-01T08:59:37;7.90;99.90
13251;DHT22;6692;50.710;7.180;2023-02-01T09:01:38;8.00;99.90
13251;DHT22;6692;50.710;7.180;2023-02-01T09:03:39;7.90;99.90
13251;DHT22;6692;50.710;7.180;2023-02-01T09:05:39;8.00;99.90
13251;DHT22;6692;50.710;7.180;2023-02-01T09:07:40;8.00;99.90
13251;DHT22;6692;50.710;7.180;2023-02-01T09:09:41;8.00;99.90
13251;DHT22;6692;50.710;7.180;2023-02-01T09:11:41;8.00;99.90
13251;DHT22;6692;50.710;7.180;2023-02-01T09:13:42;8.00;99.90
13251;DHT22;6692;50.710;7.180;2023-02-01T09:15:44;8.00;99.90
13251;DHT22;6692;50.710;7.180;2023-02-01T09:17:44;7.90;99.90
13251;DHT22;6692;50.710;7.180;2023-02-01T09:19:46;8.00;99.90
13251;DHT22;6692;50.710;7.180;2023-02-01T09:21:46;8.00;99.90
13251;DHT22;6692;50.710;7.180;2023-02-01T09:23:47;8.00;99.90
13251;DHT22;6692;50.710;7.180;2023-02-01T09:25:48;8.00;99.90
13251;DHT22;6692;50.710;7.180;2023-02-01T09:27:50;8.00;99.90
13251;DHT22;6692;50.710;7.180;2023-02-01T09:29:51;8.00;99.90
13251;DHT22;6692;50.710;7.180;2023-02-01T09:31:52;8.10;99.90
13251;DHT22;6692;50.710;7.180;2023-02-01T09:33:53;8.10;99.90
13251;DHT22;6692;50.710;7.180;2023-02-01T09:35:56;8.20;99.90
13251;DHT22;6692;50.710;7.180;2023-02-01T09:37:56;8.20;99.90
13251;DHT22;6692;50.710;7.180;2023-02-01T09:39:56;8.20;99.90
13251;DHT22;6692;50.710;7.180;2023-02-01T09:42:06;8.30;99.90
13251;DHT22;6692;50.710;7.180;2023-02-01T09:44:14;8.20;99.90
13251;DHT22;6692;50.710;7.180;2023-02-01T09:46:21;8.20;99.90
13251;DHT22;6692;50.710;7.180;2023-02-01T09:48:21;8.20;99.90
13251;DHT22;6692;50.710;7.180;2023-02-01T09:50:32;8.10;99.90
13251;DHT22;6692;50.710;7.180;2023-02-01T09:52:43;8.10;99.90
13251;DHT22;6692;50.710;7.180;2023-02-01T09:54:47;8.10;99.90
13251;DHT22;6692;50.710;7.180;2023-02-01T09:57:08;8.10;99.90
13251;DHT22;6692;50.710;7.180;2023-02-01T09:59:32;8.20;99.90
13251;DHT22;6692;50.710;7.180;2023-02-01T10:01:30;8.10;99.90
13251;DHT22;6692;50.710;7.180;2023-02-01T10:03:32;8.10;99.90
13251;DHT22;6692;50.710;7.180;2023-02-01T10:05:44;8.10;99.90
13251;DHT22;6692;50.710;7.180;2023-02-01T10:07:43;8.20;99.90
13251;DHT22;6692;50.710;7.180;2023-02-01T10:09:50;8.20;99.90
13251;DHT22;6692;50.710;7.180;2023-02-01T10:12:21;8.30;99.90
13251;DHT22;6692;50.710;7.180;2023-02-01T10:14:38;8.30;99.90
13251;DHT22;6692;50.710;7.180;2023-02-01T10:16:42;8.30;99.90
13251;DHT22;6692;50.710;7.180;2023-02-01T10:18:45;8.30;99.90
13251;DHT22;6692;50.710;7.180;2023-02-01T10:21:53;8.30;99.90
13251;DHT22;6692;50.710;7.180;2023-02-01T10:25:22;8.40;99.90
13251;DHT22;6692;50.710;7.180;2023-02-01T10:27:21;8.40;99.90
13251;DHT22;6692;50.710;7.180;2023-02-01T10:29:23;8.50;99.90
13251;DHT22;6692;50.710;7.180;2023-02-01T10:31:24;8.50;99.90
13251;DHT22;6692;50.710;7.180;2023-02-01T10:33:25;8.60;99.90
13251;DHT22;6692;50.710;7.180;2023-02-01T10:35:28;8.70;99.90
13251;DHT22;6692;50.710;7.180;2023-02-01T10:37:31;8.90;99.90
13251;DHT22;6692;50.710;7.180;2023-02-01T10:39:30;8.90;99.90
13251;DHT22;6692;50.710;7.180;2023-02-01T10:41:31;9.10;99.90
13251;DHT22;6692;50.710;7.180;2023-02-01T10:43:31;9.10;99.90
13251;DHT22;6692;50.710;7.180;2023-02-01T10:45:33;9.30;99.90
13251;DHT22;6692;50.710;7.180;2023-02-01T10:47:34;9.30;99.90
13251;DHT22;6692;50.710;7.180;2023-02-01T10:49:39;9.30;99.90
13251;DHT22;6692;50.710;7.180;2023-02-01T10:51:44;9.40;99.90
13251;DHT22;6692;50.710;7.180;2023-02-01T10:53:56;9.40;99.90
13251;DHT22;6692;50.710;7.180;2023-02-01T10:55:57;9.40;99.90
13251;DHT22;6692;50.710;7.180;2023-02-01T10:57:59;9.30;99.90
13251;DHT22;6692;50.710;7.180;2023-02-01T11:00:02;9.30;99.90
13251;DHT22;6692;50.710;7.180;2023-02-01T11:02:00;9.40;99.90
13251;DHT22;6692;50.710;7.180;2023-02-01T11:04:02;9.60;99.90
13251;DHT22;6692;50.710;7.180;2023-02-01T11:06:03;9.60;99.90
13251;DHT22;6692;50.710;7.180;2023-02-01T11:08:03;9.70;99.90
13251;DHT22;6692;50.710;7.180;2023-02-01T11:10:06;9.80;99.90
13251;DHT22;6692;50.710;7.180;2023-02-01T11:12:20;9.80;99.90
13251;DHT22;6692;50.710;7.180;2023-02-01T11:14:13;9.70;99.90
13251;DHT22;6692;50.710;7.180;2023-02-01T11:16:12;9.70;99.90
13251;DHT22;6692;50.710;7.180;2023-02-01T11:18:16;9.70;99.90
13251;DHT22;6692;50.710;7.180;2023-02-01T11:20:20;9.70;99.90
13251;DHT22;6692;50.710;7.180;2023-02-01T11:22:19;9.80;99.90
13251;DHT22;6692;50.710;7.180;2023-02-01T11:24:24;9.80;99.90
13251;DHT22;6692;50.710;7.180;2023-02-01T11:26:24;9.80;99.90
13251;DHT22;6692;50.710;7.180;2023-02-01T11:28:27;9.80;99.90
13251;DHT22;6692;50.710;7.180;2023-02-01T11:30:33;9.80;99.90
13251;DHT22;6692;50.710;7.180;2023-02-01T11:32:32;9.80;99.90
13251;DHT22;6692;50.710;7.180;2023-02-01T11:34:37;9.70;99.90
13251;DHT22;6692;50.710;7.180;2023-02-01T11:36:37;9.70;99.90
13251;DHT22;6692;50.710;7.180;2023-02-01T11:38:38;9.60;99.90
13251;DHT22;6692;50.710;7.180;2023-02-01T11:40:38;9.50;99.90
13251;DHT22;6692;50.710;7.180;2023-02-01T11:42:39;9.40;99.90
13251;DHT22;6692;50.710;7.180;2023-02-01T11:44:41;9.50;99.90
13251;DHT22;6692;50.710;7.180;2023-02-01T11:46:41;9.60;99.90
13251;DHT22;6692;50.710;7.180;2023-02-01T11:48:42;9.60;99.90
13251;DHT22;6692;50.710;7.180;2023-02-01T11:50:48;9.90;99.90
13251;DHT22;6692;50.710;7.180;2023-02-01T11:53:01;10.00;99.90
13251;DHT22;6692;50.710;7.180;2023-02-01T11:55:10;10.00;99.90
13251;DHT22;6692;50.710;7.180;2023-02-01T11:59:38;10.00;99.90
13251;DHT22;6692;50.710;7.180;2023-02-01T12:02:02;10.00;99.90
13251;DHT22;6692;50.710;7.180;2023-02-01T12:04:10;10.00;99.90
13251;DHT22;6692;50.710;7.180;2023-02-01T12:06:48;10.00;99.90
13251;DHT22;6692;50.710;7.180;2023-02-01T12:08:40;10.00;99.90
13251;DHT22;6692;50.710;7.180;2023-02-01T12:10:46;9.90;99.90
13251;DHT22;6692;50.710;7.180;2023-02-01T12:14:03;9.80;99.90
13251;DHT22;6692;50.710;7.180;2023-02-01T12:17:41;9.50;99.90
13251;DHT22;6692;50.710;7.180;2023-02-01T12:19:54;9.50;99.90
13251;DHT22;6692;50.710;7.180;2023-02-01T12:26:20;9.30;99.90
13251;DHT22;6692;50.710;7.180;2023-02-01T12:30:39;9.30;99.90
13251;DHT22;6692;50.710;7.180;2023-02-01T12:32:57;9.30;99.90
13251;DHT22;6692;50.710;7.180;2023-02-01T12:35:13;9.30;99.90
13251;DHT22;6692;50.710;7.180;2023-02-01T12:37:19;9.20;99.90
13251;DHT22;6692;50.710;7.180;2023-02-01T12:39:30;9.10;99.90
13251;DHT22;6692;50.710;7.180;2023-02-01T12:41:33;9.10;99.90
13251;DHT22;6692;50.710;7.180;2023-02-01T12:43:38;9.10;99.90
13251;DHT22;6692;50.710;7.180;2023-02-01T12:45:39;9.20;99.90
13251;DHT22;6692;50.710;7.180;2023-02-01T12:47:44;9.20;99.90
13251;DHT22;6692;50.710;7.180;2023-02-01T12:49:53;9.10;99.90
13251;DHT22;6692;50.710;7.180;2023-02-01T12:51:52;9.20;99.90
13251;DHT22;6692;50.710;7.180;2023-02-01T12:53:55;9.30;99.90
13251;DHT22;6692;50.710;7.180;2023-02-01T12:55:57;9.40;99.90
13251;DHT22;6692;50.710;7.180;2023-02-01T12:57:58;9.40;99.90
13251;DHT22;6692;50.710;7.180;2023-02-01T13:00:01;9.30;99.90
13251;DHT22;6692;50.710;7.180;2023-02-01T13:02:01;9.30;99.90
13251;DHT22;6692;50.710;7.180;2023-02-01T13:04:04;9.30;99.90
13251;DHT22;6692;50.710;7.180;2023-02-01T13:06:04;9.20;99.90
13251;DHT22;6692;50.710;7.180;2023-02-01T13:08:08;9.20;99.90
13251;DHT22;6692;50.710;7.180;2023-02-01T13:10:17;9.20;99.90
13251;DHT22;6692;50.710;7.180;2023-02-01T13:12:18;9.20;99.90
13251;DHT22;6692;50.710;7.180;2023-02-01T13:14:32;9.20;99.90
13251;DHT22;6692;50.710;7.180;2023-02-01T13:16:35;9.20;99.90
13251;DHT22;6692;50.710;7.180;2023-02-01T13:18:35;9.20;99.90
13251;DHT22;6692;50.710;7.180;2023-02-01T13:20:41;9.20;99.90
13251;DHT22;6692;50.710;7.180;2023-02-01T13:22:40;9.20;99.90
13251;DHT22;6692;50.710;7.180;2023-02-01T13:24:42;9.20;99.90
13251;DHT22;6692;50.710;7.180;2023-02-01T13:26:41;9.20;99.90
13251;DHT22;6692;50.710;7.180;2023-02-01T13:28:46;9.20;99.90
13251;DHT22;6692;50.710;7.180;2023-02-01T13:31:03;9.10;99.90
13251;DHT22;6692;50.710;7.180;2023-02-01T13:33:11;9.10;99.90
13251;DHT22;6692;50.710;7.180;2023-02-01T13:35:19;9.00;99.90
13251;DHT22;6692;50.710;7.180;2023-02-01T13:37:43;9.00;99.90
13251;DHT22;6692;50.710;7.180;2023-02-01T13:41:53;9.00;99.90
13251;DHT22;6692;50.710;7.180;2023-02-01T13:43:54;9.00;99.90
13251;DHT22;6692;50.710;7.180;2023-02-01T13:45:55;8.90;99.90
13251;DHT22;6692;50.710;7.180;2023-02-01T13:47:56;8.90;99.90
13251;DHT22;6692;50.710;7.180;2023-02-01T13:49:57;8.70;99.90
13251;DHT22;6692;50.710;7.180;2023-02-01T13:51:58;8.50;99.90
13251;DHT22;6692;50.710;7.180;2023-02-01T13:53:58;8.50;99.90
13251;DHT22;6692;50.710;7.180;2023-02-01T13:56:00;8.40;99.90
13251;DHT22;6692;50.710;7.180;2023-02-01T13:58:02;8.30;99.90
13251;DHT22;6692;50.710;7.180;2023-02-01T14:00:05;7.90;99.90
13251;DHT22;6692;50.710;7.180;2023-02-01T14:04:45;7.80;99.90
13251;DHT22;6692;50.710;7.180;2023-02-01T14:06:45;7.60;99.90
13251;DHT22;6692;50.710;7.180;2023-02-01T14:08:46;7.50;99.90
13251;DHT22;6692;50.710;7.180;2023-02-01T14:10:53;7.50;99.90
13251;DHT22;6692;50.710;7.180;2023-02-01T14:12:53;7.50;99.90